sensor_id;sensor_type;location;lat;lon;timestamp;P1;durP1;ratioP1;P2;durP2;ratioP2
38037;SDS011;23843;51.320;12.340;2023-05-07T00:01:56;9.07;;;6.90;;
38037;SDS011;23843;51.320;12.340;2023-05-07T00:04:22;12.07;;;7.43;;
38037;SDS011;23843;51.320;12.340;2023-05-07T00:06:48;8.00;;;6.87;;
38037;SDS011;23843;51.320;12.340;2023-05-07T00:09:13;10.23;;;7.60;;
38037;SDS011;23843;51.320;12.340;2023-05-07T00:11:39;9.63;;;7.20;;
38037;SDS011;23843;51.320;12.340;2023-05-07T00:14:04;9.47;;;7.40;;
38037;SDS011;23843;51.320;12.340;2023-05-07T00:16:31;7.87;;;5.87;;
38037;SDS011;23843;51.320;12.340;2023-05-07T00:18:56;7.43;;;6.23;;
38037;SDS011;23843;51.320;12.340;2023-05-07T00:21:22;9.57;;;5.57;;
38037;SDS011;23843;51.320;12.340;2023-05-07T00:23:47;6.90;;;5.50;;
38037;SDS011;23843;51.320;12.340;2023-05-07T00:26:13;9.60;;;7.10;;
38037;SDS011;23843;51.320;12.340;2023-05-07T00:28:38;6.40;;;5.53;;
38037;SDS011;23843;51.320;12.340;2023-05-07T00:31:05;7.30;;;5.60;;
38037;SDS011;23843;51.320;12.340;2023-05-07T00:33:32;5.43;;;4.57;;
38037;SDS011;23843;51.320;12.340;2023-05-07T00:35:58;6.70;;;6.00;;
38037;SDS011;23843;51.320;12.340;2023-05-07T00:38:23;6.47;;;5.37;;
38037;SDS011;23843;51.320;12.340;2023-05-07T00:40:49;5.07;;;3.97;;
38037;SDS011;23843;51.320;12.340;2023-05-07T00:43:14;6.57;;;5.10;;
38037;SDS011;23843;51.320;12.340;2023-05-07T00:45:39;6.53;;;4.70;;
38037;SDS011;23843;51.320;12.340;2023-05-07T00:48:07;5.43;;;4.73;;
38037;SDS011;23843;51.320;12.340;2023-05-07T00:50:34;6.17;;;5.07;;
38037;SDS011;23843;51.320;12.340;2023-05-07T00:53:00;4.53;;;4.00;;
38037;SDS011;23843;51.320;12.340;2023-05-07T00:55:25;3.70;;;3.20;;
38037;SDS011;23843;51.320;12.340;2023-05-07T00:57:52;8.17;;;5.33;;
38037;SDS011;23843;51.320;12.340;2023-05-07T01:00:17;4.97;;;3.90;;
38037;SDS011;23843;51.320;12.340;2023-05-07T01:02:43;6.80;;;4.93;;
38037;SDS011;23843;51.320;12.340;2023-05-07T01:05:09;7.40;;;6.30;;
38037;SDS011;23843;51.320;12.340;2023-05-07T01:07:38;7.50;;;5.57;;
38037;SDS011;23843;51.320;12.340;2023-05-07T01:10:05;7.30;;;5.93;;
38037;SDS011;23843;51.320;12.340;2023-05-07T01:12:32;8.00;;;6.90;;
38037;SDS011;23843;51.320;12.340;2023-05-07T01:14:58;10.83;;;8.10;;
38037;SDS011;23843;51.320;12.340;2023-05-07T01:17:23;7.83;;;6.23;;
38037;SDS011;23843;51.320;12.340;2023-05-07T01:19:49;9.00;;;6.93;;
38037;SDS011;23843;51.320;12.340;2023-05-07T01:22:15;9.07;;;7.67;;
38037;SDS011;23843;51.320;12.340;2023-05-07T01:24:46;10.27;;;8.40;;
38037;SDS011;23843;51.320;12.340;2023-05-07T01:27:12;8.33;;;7.07;;
38037;SDS011;23843;51.320;12.340;2023-05-07T01:29:38;9.03;;;7.20;;
38037;SDS011;23843;51.320;12.340;2023-05-07T01:32:03;9.73;;;7.50;;
38037;SDS011;23843;51.320;12.340;2023-05-07T01:34:31;8.40;;;7.03;;
38037;SDS011;23843;51.320;12.340;2023-05-07T01:36:59;7.07;;;5.70;;
38037;SDS011;23843;51.320;12.340;2023-05-07T01:39:26;6.33;;;5.03;;
38037;SDS011;23843;51.320;12.340;2023-05-07T01:41:54;9.03;;;6.90;;
38037;SDS011;23843;51.320;12.340;2023-05-07T01:44:20;8.17;;;6.60;;
38037;SDS011;23843;51.320;12.340;2023-05-07T01:46:47;7.33;;;5.77;;
38037;SDS011;23843;51.320;12.340;2023-05-07T01:49:13;7.03;;;5.83;;
38037;SDS011;23843;51.320;12.340;2023-05-07T01:51:38;8.50;;;6.37;;
38037;SDS011;23843;51.320;12.340;2023-05-07T01:54:05;8.57;;;7.20;;
38037;SDS011;23843;51.320;12.340;2023-05-07T01:56:30;12.83;;;7.80;;
38037;SDS011;23843;51.320;12.340;2023-05-07T01:58:57;9.63;;;7.03;;
38037;SDS011;23843;51.320;12.340;2023-05-07T02:01:23;8.80;;;6.57;;
38037;SDS011;23843;51.320;12.340;2023-05-07T02:03:48;7.87;;;6.23;;
38037;SDS011;23843;51.320;12.340;2023-05-07T02:06:14;12.30;;;9.23;;
38037;SDS011;23843;51.320;12.340;2023-05-07T02:08:39;10.57;;;8.40;;
38037;SDS011;23843;51.320;12.340;2023-05-07T02:11:05;9.53;;;7.53;;
38037;SDS011;23843;51.320;12.340;2023-05-07T02:13:31;7.73;;;6.20;;
38037;SDS011;23843;51.320;12.340;2023-05-07T02:15:59;7.30;;;5.80;;
38037;SDS011;23843;51.320;12.340;2023-05-07T02:18:24;8.73;;;6.80;;
38037;SDS011;23843;51.320;12.340;2023-05-07T02:20:50;12.20;;;9.90;;
38037;SDS011;23843;51.320;12.340;2023-05-07T02:23:15;12.77;;;9.43;;
38037;SDS011;23843;51.320;12.340;2023-05-07T02:25:41;11.57;;;9.23;;
38037;SDS011;23843;51.320;12.340;2023-05-07T02:28:06;9.87;;;7.00;;
38037;SDS011;23843;51.320;12.340;2023-05-07T02:30:32;10.83;;;8.73;;
38037;SDS011;23843;51.320;12.340;2023-05-07T02:32:59;8.90;;;7.37;;
38037;SDS011;23843;51.320;12.340;2023-05-07T02:35:24;12.83;;;9.83;;
38037;SDS011;23843;51.320;12.340;2023-05-07T02:37:50;14.90;;;10.57;;
38037;SDS011;23843;51.320;12.340;2023-05-07T02:40:15;10.60;;;8.97;;
38037;SDS011;23843;51.320;12.340;2023-05-07T02:42:41;9.90;;;7.83;;
38037;SDS011;23843;51.320;12.340;2023-05-07T02:45:06;6.13;;;5.13;;
38037;SDS011;23843;51.320;12.340;2023-05-07T02:47:33;6.10;;;5.17;;
38037;SDS011;23843;51.320;12.340;2023-05-07T02:50:00;10.03;;;8.00;;
38037;SDS011;23843;51.320;12.340;2023-05-07T02:52:25;9.07;;;7.80;;
38037;SDS011;23843;51.320;12.340;2023-05-07T02:54:51;8.50;;;6.77;;
38037;SDS011;23843;51.320;12.340;2023-05-07T02:57:16;11.80;;;7.83;;
38037;SDS011;23843;51.320;12.340;2023-05-07T02:59:42;10.37;;;8.43;;
38037;SDS011;23843;51.320;12.340;2023-05-07T03:02:07;9.30;;;7.80;;
38037;SDS011;23843;51.320;12.340;2023-05-07T03:04:33;12.97;;;10.73;;
38037;SDS011;23843;51.320;12.340;2023-05-07T03:07:00;10.40;;;8.70;;
38037;SDS011;23843;51.320;12.340;2023-05-07T03:09:25;10.07;;;8.20;;
38037;SDS011;23843;51.320;12.340;2023-05-07T03:11:51;10.67;;;9.37;;
38037;SDS011;23843;51.320;12.340;2023-05-07T03:14:16;9.37;;;7.40;;
38037;SDS011;23843;51.320;12.340;2023-05-07T03:16:42;9.63;;;7.60;;
38037;SDS011;23843;51.320;12.340;2023-05-07T03:19:07;8.90;;;7.20;;
38037;SDS011;23843;51.320;12.340;2023-05-07T03:21:32;11.03;;;9.33;;
38037;SDS011;23843;51.320;12.340;2023-05-07T03:23:59;11.33;;;9.47;;
38037;SDS011;23843;51.320;12.340;2023-05-07T03:26:25;7.50;;;6.50;;
38037;SDS011;23843;51.320;12.340;2023-05-07T03:28:51;7.77;;;6.87;;
38037;SDS011;23843;51.320;12.340;2023-05-07T03:31:16;6.60;;;5.90;;
38037;SDS011;23843;51.320;12.340;2023-05-07T03:33:49;5.13;;;4.40;;
38037;SDS011;23843;51.320;12.340;2023-05-07T03:36:16;10.73;;;8.67;;
38037;SDS011;23843;51.320;12.340;2023-05-07T03:38:41;10.57;;;8.97;;
38037;SDS011;23843;51.320;12.340;2023-05-07T03:41:08;10.63;;;8.23;;
38037;SDS011;23843;51.320;12.340;2023-05-07T03:43:33;8.23;;;6.37;;
38037;SDS011;23843;51.320;12.340;2023-05-07T03:45:59;8.97;;;8.03;;
38037;SDS011;23843;51.320;12.340;2023-05-07T03:48:24;8.77;;;7.67;;
38037;SDS011;23843;51.320;12.340;2023-05-07T03:50:50;7.27;;;5.70;;
38037;SDS011;23843;51.320;12.340;2023-05-07T03:53:15;10.83;;;8.80;;
38037;SDS011;23843;51.320;12.340;2023-05-07T03:55:41;11.53;;;8.97;;
38037;SDS011;23843;51.320;12.340;2023-05-07T03:58:07;8.83;;;7.33;;
38037;SDS011;23843;51.320;12.340;2023-05-07T04:00:33;10.37;;;8.13;;
38037;SDS011;23843;51.320;12.340;2023-05-07T04:02:58;12.57;;;9.90;;
38037;SDS011;23843;51.320;12.340;2023-05-07T04:05:24;13.33;;;9.30;;
38037;SDS011;23843;51.320;12.340;2023-05-07T04:07:50;12.13;;;10.03;;
38037;SDS011;23843;51.320;12.340;2023-05-07T04:10:15;12.13;;;9.70;;
38037;SDS011;23843;51.320;12.340;2023-05-07T04:12:41;11.57;;;9.63;;
38037;SDS011;23843;51.320;12.340;2023-05-07T04:15:08;10.60;;;8.37;;
38037;SDS011;23843;51.320;12.340;2023-05-07T04:17:34;14.57;;;11.20;;
38037;SDS011;23843;51.320;12.340;2023-05-07T04:20:00;11.47;;;9.60;;
38037;SDS011;23843;51.320;12.340;2023-05-07T04:22:25;13.20;;;10.03;;
38037;SDS011;23843;51.320;12.340;2023-05-07T04:24:51;16.23;;;12.80;;
38037;SDS011;23843;51.320;12.340;2023-05-07T04:27:16;16.57;;;13.07;;
38037;SDS011;23843;51.320;12.340;2023-05-07T04:29:42;12.67;;;10.33;;
38037;SDS011;23843;51.320;12.340;2023-05-07T04:32:09;14.33;;;11.20;;
38037;SDS011;23843;51.320;12.340;2023-05-07T04:34:34;14.17;;;10.70;;
38037;SDS011;23843;51.320;12.340;2023-05-07T04:37:00;10.77;;;8.87;;
38037;SDS011;23843;51.320;12.340;2023-05-07T04:39:25;11.93;;;8.23;;
38037;SDS011;23843;51.320;12.340;2023-05-07T04:41:51;10.70;;;8.53;;
38037;SDS011;23843;51.320;12.340;2023-05-07T04:44:16;12.40;;;9.33;;
38037;SDS011;23843;51.320;12.340;2023-05-07T04:46:42;10.47;;;8.60;;
38037;SDS011;23843;51.320;12.340;2023-05-07T04:49:08;8.87;;;7.00;;
38037;SDS011;23843;51.320;12.340;2023-05-07T04:51:34;9.57;;;7.20;;
38037;SDS011;23843;51.320;12.340;2023-05-07T04:53:59;14.37;;;10.20;;
38037;SDS011;23843;51.320;12.340;2023-05-07T04:56:27;10.80;;;9.13;;
38037;SDS011;23843;51.320;12.340;2023-05-07T04:58:53;10.40;;;7.47;;
38037;SDS011;23843;51.320;12.340;2023-05-07T05:01:18;9.07;;;6.43;;
38037;SDS011;23843;51.320;12.340;2023-05-07T05:03:43;9.47;;;8.13;;
38037;SDS011;23843;51.320;12.340;2023-05-07T05:06:11;11.33;;;8.00;;
38037;SDS011;23843;51.320;12.340;2023-05-07T05:08:36;9.43;;;7.50;;
38037;SDS011;23843;51.320;12.340;2023-05-07T05:11:02;14.37;;;10.83;;
38037;SDS011;23843;51.320;12.340;2023-05-07T05:13:28;11.80;;;8.80;;
38037;SDS011;23843;51.320;12.340;2023-05-07T05:15:53;10.77;;;8.57;;
38037;SDS011;23843;51.320;12.340;2023-05-07T05:18:19;10.27;;;8.07;;
38037;SDS011;23843;51.320;12.340;2023-05-07T05:20:44;10.70;;;8.87;;
38037;SDS011;23843;51.320;12.340;2023-05-07T05:23:12;10.37;;;8.23;;
38037;SDS011;23843;51.320;12.340;2023-05-07T05:25:38;9.57;;;7.27;;
38037;SDS011;23843;51.320;12.340;2023-05-07T05:28:03;9.73;;;7.37;;
38037;SDS011;23843;51.320;12.340;2023-05-07T05:30:29;11.73;;;8.10;;
38037;SDS011;23843;51.320;12.340;2023-05-07T05:32:54;9.87;;;7.40;;
38037;SDS011;23843;51.320;12.340;2023-05-07T05:35:20;10.30;;;7.87;;
38037;SDS011;23843;51.320;12.340;2023-05-07T05:37:45;8.07;;;6.50;;
38037;SDS011;23843;51.320;12.340;2023-05-07T05:40:13;9.20;;;7.30;;
38037;SDS011;23843;51.320;12.340;2023-05-07T05:42:38;8.43;;;6.83;;
38037;SDS011;23843;51.320;12.340;2023-05-07T05:45:04;11.50;;;8.67;;
38037;SDS011;23843;51.320;12.340;2023-05-07T05:47:30;8.33;;;6.60;;
38037;SDS011;23843;51.320;12.340;2023-05-07T05:49:56;7.23;;;6.27;;
38037;SDS011;23843;51.320;12.340;2023-05-07T05:52:21;8.87;;;6.50;;
38037;SDS011;23843;51.320;12.340;2023-05-07T05:54:47;10.13;;;7.27;;
38037;SDS011;23843;51.320;12.340;2023-05-07T05:57:14;9.90;;;6.93;;
38037;SDS011;23843;51.320;12.340;2023-05-07T05:59:39;8.17;;;5.93;;
38037;SDS011;23843;51.320;12.340;2023-05-07T06:02:05;8.13;;;5.90;;
38037;SDS011;23843;51.320;12.340;2023-05-07T06:04:31;9.83;;;7.80;;
38037;SDS011;23843;51.320;12.340;2023-05-07T06:07:03;10.97;;;8.80;;
38037;SDS011;23843;51.320;12.340;2023-05-07T06:09:29;8.83;;;6.60;;
38037;SDS011;23843;51.320;12.340;2023-05-07T06:11:54;8.27;;;5.70;;
38037;SDS011;23843;51.320;12.340;2023-05-07T06:14:21;9.60;;;7.80;;
38037;SDS011;23843;51.320;12.340;2023-05-07T06:16:46;7.43;;;6.03;;
38037;SDS011;23843;51.320;12.340;2023-05-07T06:19:12;7.67;;;5.67;;
38037;SDS011;23843;51.320;12.340;2023-05-07T06:21:38;8.30;;;6.70;;
38037;SDS011;23843;51.320;12.340;2023-05-07T06:24:04;9.67;;;7.17;;
38037;SDS011;23843;51.320;12.340;2023-05-07T06:26:30;8.70;;;7.40;;
38037;SDS011;23843;51.320;12.340;2023-05-07T06:28:55;9.70;;;7.30;;
38037;SDS011;23843;51.320;12.340;2023-05-07T06:31:22;9.40;;;7.17;;
38037;SDS011;23843;51.320;12.340;2023-05-07T06:33:50;8.03;;;6.40;;
38037;SDS011;23843;51.320;12.340;2023-05-07T06:36:15;8.60;;;7.10;;
38037;SDS011;23843;51.320;12.340;2023-05-07T06:38:41;8.53;;;6.33;;
38037;SDS011;23843;51.320;12.340;2023-05-07T06:41:06;9.53;;;6.93;;
38037;SDS011;23843;51.320;12.340;2023-05-07T06:43:32;10.03;;;7.87;;
38037;SDS011;23843;51.320;12.340;2023-05-07T06:45:57;10.10;;;7.60;;
38037;SDS011;23843;51.320;12.340;2023-05-07T06:48:24;9.13;;;7.77;;
38037;SDS011;23843;51.320;12.340;2023-05-07T06:50:50;8.97;;;7.60;;
38037;SDS011;23843;51.320;12.340;2023-05-07T06:53:21;10.10;;;7.20;;
38037;SDS011;23843;51.320;12.340;2023-05-07T06:55:46;5.73;;;5.07;;
38037;SDS011;23843;51.320;12.340;2023-05-07T06:58:12;5.33;;;4.37;;
38037;SDS011;23843;51.320;12.340;2023-05-07T07:00:37;8.47;;;7.10;;
38037;SDS011;23843;51.320;12.340;2023-05-07T07:03:03;9.47;;;7.37;;
38037;SDS011;23843;51.320;12.340;2023-05-07T07:05:30;11.67;;;8.80;;
38037;SDS011;23843;51.320;12.340;2023-05-07T07:07:55;7.90;;;6.40;;
38037;SDS011;23843;51.320;12.340;2023-05-07T07:10:21;7.73;;;6.50;;
38037;SDS011;23843;51.320;12.340;2023-05-07T07:12:48;6.20;;;4.97;;
38037;SDS011;23843;51.320;12.340;2023-05-07T07:15:14;10.07;;;7.80;;
38037;SDS011;23843;51.320;12.340;2023-05-07T07:17:39;7.93;;;6.47;;
38037;SDS011;23843;51.320;12.340;2023-05-07T07:20:05;8.53;;;6.53;;
38037;SDS011;23843;51.320;12.340;2023-05-07T07:22:33;8.47;;;6.63;;
38037;SDS011;23843;51.320;12.340;2023-05-07T07:24:59;10.27;;;8.17;;
38037;SDS011;23843;51.320;12.340;2023-05-07T07:27:24;8.23;;;7.03;;
38037;SDS011;23843;51.320;12.340;2023-05-07T07:29:50;7.83;;;6.33;;
38037;SDS011;23843;51.320;12.340;2023-05-07T07:32:15;9.07;;;5.67;;
38037;SDS011;23843;51.320;12.340;2023-05-07T07:34:41;7.50;;;5.63;;
38037;SDS011;23843;51.320;12.340;2023-05-07T07:37:06;6.53;;;5.33;;
38037;SDS011;23843;51.320;12.340;2023-05-07T07:39:33;6.63;;;5.40;;
38037;SDS011;23843;51.320;12.340;2023-05-07T07:41:59;5.70;;;4.70;;
38037;SDS011;23843;51.320;12.340;2023-05-07T07:44:24;4.57;;;3.93;;
38037;SDS011;23843;51.320;12.340;2023-05-07T07:46:50;5.73;;;4.77;;
38037;SDS011;23843;51.320;12.340;2023-05-07T07:49:16;6.70;;;5.70;;
38037;SDS011;23843;51.320;12.340;2023-05-07T07:51:41;6.53;;;5.87;;
38037;SDS011;23843;51.320;12.340;2023-05-07T07:54:07;7.27;;;6.13;;
38037;SDS011;23843;51.320;12.340;2023-05-07T07:56:34;5.87;;;5.27;;
38037;SDS011;23843;51.320;12.340;2023-05-07T07:59:00;6.33;;;5.40;;
38037;SDS011;23843;51.320;12.340;2023-05-07T08:01:26;5.03;;;4.27;;
38037;SDS011;23843;51.320;12.340;2023-05-07T08:03:51;6.20;;;5.40;;
38037;SDS011;23843;51.320;12.340;2023-05-07T08:06:17;8.90;;;7.57;;
38037;SDS011;23843;51.320;12.340;2023-05-07T08:08:42;9.00;;;6.87;;
38037;SDS011;23843;51.320;12.340;2023-05-07T08:11:08;7.53;;;6.40;;
38037;SDS011;23843;51.320;12.340;2023-05-07T08:13:35;5.33;;;4.50;;
38037;SDS011;23843;51.320;12.340;2023-05-07T08:16:01;5.47;;;4.87;;
38037;SDS011;23843;51.320;12.340;2023-05-07T08:18:27;6.43;;;5.30;;
38037;SDS011;23843;51.320;12.340;2023-05-07T08:20:52;5.73;;;5.10;;
38037;SDS011;23843;51.320;12.340;2023-05-07T08:23:18;6.40;;;5.80;;
38037;SDS011;23843;51.320;12.340;2023-05-07T08:25:43;5.90;;;4.97;;
38037;SDS011;23843;51.320;12.340;2023-05-07T08:28:09;7.10;;;6.37;;
38037;SDS011;23843;51.320;12.340;2023-05-07T08:30:36;8.30;;;7.27;;
38037;SDS011;23843;51.320;12.340;2023-05-07T08:33:04;6.10;;;5.40;;
38037;SDS011;23843;51.320;12.340;2023-05-07T08:35:29;6.80;;;5.57;;
38037;SDS011;23843;51.320;12.340;2023-05-07T08:37:55;6.37;;;5.77;;
38037;SDS011;23843;51.320;12.340;2023-05-07T08:40:22;5.23;;;4.73;;
38037;SDS011;23843;51.320;12.340;2023-05-07T08:42:50;5.17;;;4.60;;
38037;SDS011;23843;51.320;12.340;2023-05-07T08:45:17;4.30;;;3.90;;
38037;SDS011;23843;51.320;12.340;2023-05-07T08:47:46;4.63;;;3.97;;
38037;SDS011;23843;51.320;12.340;2023-05-07T08:50:15;4.80;;;4.30;;
38037;SDS011;23843;51.320;12.340;2023-05-07T08:52:41;5.17;;;4.40;;
38037;SDS011;23843;51.320;12.340;2023-05-07T08:55:07;5.07;;;4.40;;
38037;SDS011;23843;51.320;12.340;2023-05-07T08:57:33;5.43;;;4.80;;
38037;SDS011;23843;51.320;12.340;2023-05-07T08:59:59;5.13;;;4.43;;
38037;SDS011;23843;51.320;12.340;2023-05-07T09:02:24;4.20;;;3.80;;
38037;SDS011;23843;51.320;12.340;2023-05-07T09:04:51;8.40;;;5.80;;
38037;SDS011;23843;51.320;12.340;2023-05-07T09:07:17;6.43;;;5.30;;
38037;SDS011;23843;51.320;12.340;2023-05-07T09:09:43;5.33;;;4.40;;
38037;SDS011;23843;51.320;12.340;2023-05-07T09:12:09;4.33;;;3.73;;
38037;SDS011;23843;51.320;12.340;2023-05-07T09:14:35;4.00;;;3.53;;
38037;SDS011;23843;51.320;12.340;2023-05-07T09:17:01;3.80;;;3.40;;
38037;SDS011;23843;51.320;12.340;2023-05-07T09:19:27;5.23;;;4.40;;
38037;SDS011;23843;51.320;12.340;2023-05-07T09:21:59;5.60;;;4.73;;
38037;SDS011;23843;51.320;12.340;2023-05-07T09:24:25;6.13;;;4.63;;
38037;SDS011;23843;51.320;12.340;2023-05-07T09:26:50;5.00;;;4.27;;
38037;SDS011;23843;51.320;12.340;2023-05-07T09:29:15;5.03;;;4.53;;
38037;SDS011;23843;51.320;12.340;2023-05-07T09:31:41;5.57;;;4.63;;
38037;SDS011;23843;51.320;12.340;2023-05-07T09:34:06;5.73;;;5.10;;
38037;SDS011;23843;51.320;12.340;2023-05-07T09:36:32;4.93;;;4.40;;
38037;SDS011;23843;51.320;12.340;2023-05-07T09:39:00;5.93;;;5.17;;
38037;SDS011;23843;51.320;12.340;2023-05-07T09:41:25;5.37;;;4.83;;
38037;SDS011;23843;51.320;12.340;2023-05-07T09:43:53;6.60;;;5.77;;
38037;SDS011;23843;51.320;12.340;2023-05-07T09:46:19;6.27;;;5.67;;
38037;SDS011;23843;51.320;12.340;2023-05-07T09:48:50;6.63;;;4.23;;
38037;SDS011;23843;51.320;12.340;2023-05-07T09:51:22;5.00;;;4.40;;
38037;SDS011;23843;51.320;12.340;2023-05-07T09:53:50;4.80;;;4.20;;
38037;SDS011;23843;51.320;12.340;2023-05-07T09:56:18;5.37;;;4.70;;
38037;SDS011;23843;51.320;12.340;2023-05-07T09:58:45;5.43;;;4.13;;
38037;SDS011;23843;51.320;12.340;2023-05-07T10:01:12;5.67;;;4.27;;
38037;SDS011;23843;51.320;12.340;2023-05-07T10:03:38;4.00;;;3.60;;
38037;SDS011;23843;51.320;12.340;2023-05-07T10:06:05;4.40;;;3.97;;
38037;SDS011;23843;51.320;12.340;2023-05-07T10:08:32;4.87;;;4.27;;
38037;SDS011;23843;51.320;12.340;2023-05-07T10:10:57;5.97;;;4.70;;
38037;SDS011;23843;51.320;12.340;2023-05-07T10:13:26;6.17;;;5.37;;
38037;SDS011;23843;51.320;12.340;2023-05-07T10:15:52;5.50;;;4.90;;
38037;SDS011;23843;51.320;12.340;2023-05-07T10:18:18;5.47;;;4.40;;
38037;SDS011;23843;51.320;12.340;2023-05-07T10:20:45;5.47;;;4.80;;
38037;SDS011;23843;51.320;12.340;2023-05-07T10:23:13;4.50;;;3.70;;
38037;SDS011;23843;51.320;12.340;2023-05-07T10:25:42;5.27;;;4.77;;
38037;SDS011;23843;51.320;12.340;2023-05-07T10:28:08;4.83;;;4.33;;
38037;SDS011;23843;51.320;12.340;2023-05-07T10:30:40;4.07;;;3.63;;
38037;SDS011;23843;51.320;12.340;2023-05-07T10:33:15;3.47;;;2.60;;
38037;SDS011;23843;51.320;12.340;2023-05-07T10:35:45;5.40;;;3.80;;
38037;SDS011;23843;51.320;12.340;2023-05-07T10:38:12;4.83;;;4.20;;
38037;SDS011;23843;51.320;12.340;2023-05-07T10:40:38;4.10;;;3.70;;
38037;SDS011;23843;51.320;12.340;2023-05-07T10:43:04;4.23;;;3.87;;
38037;SDS011;23843;51.320;12.340;2023-05-07T10:45:30;3.70;;;3.27;;
38037;SDS011;23843;51.320;12.340;2023-05-07T10:48:07;4.70;;;3.90;;
38037;SDS011;23843;51.320;12.340;2023-05-07T10:50:34;5.30;;;4.23;;
38037;SDS011;23843;51.320;12.340;2023-05-07T10:55:48;3.60;;;3.00;;
38037;SDS011;23843;51.320;12.340;2023-05-07T10:58:24;5.47;;;4.40;;
38037;SDS011;23843;51.320;12.340;2023-05-07T11:00:50;3.53;;;3.23;;
38037;SDS011;23843;51.320;12.340;2023-05-07T11:03:21;3.80;;;3.27;;
38037;SDS011;23843;51.320;12.340;2023-05-07T11:05:47;4.03;;;3.63;;
38037;SDS011;23843;51.320;12.340;2023-05-07T11:08:54;3.50;;;3.20;;
38037;SDS011;23843;51.320;12.340;2023-05-07T11:11:33;6.20;;;5.33;;
38037;SDS011;23843;51.320;12.340;2023-05-07T11:14:09;5.67;;;4.80;;
38037;SDS011;23843;51.320;12.340;2023-05-07T11:16:35;5.63;;;4.70;;
38037;SDS011;23843;51.320;12.340;2023-05-07T11:19:04;6.30;;;4.00;;
38037;SDS011;23843;51.320;12.340;2023-05-07T11:21:33;4.40;;;4.00;;
38037;SDS011;23843;51.320;12.340;2023-05-07T11:23:59;4.57;;;4.13;;
38037;SDS011;23843;51.320;12.340;2023-05-07T11:26:25;4.90;;;4.40;;
38037;SDS011;23843;51.320;12.340;2023-05-07T11:28:55;4.63;;;4.23;;
38037;SDS011;23843;51.320;12.340;2023-05-07T11:31:21;4.70;;;3.90;;
38037;SDS011;23843;51.320;12.340;2023-05-07T11:33:47;2.83;;;2.60;;
38037;SDS011;23843;51.320;12.340;2023-05-07T11:36:14;8.17;;;4.90;;
38037;SDS011;23843;51.320;12.340;2023-05-07T11:38:40;4.27;;;3.50;;
38037;SDS011;23843;51.320;12.340;2023-05-07T11:41:06;4.20;;;3.80;;
38037;SDS011;23843;51.320;12.340;2023-05-07T11:43:33;3.80;;;3.50;;
38037;SDS011;23843;51.320;12.340;2023-05-07T11:46:05;5.83;;;5.00;;
38037;SDS011;23843;51.320;12.340;2023-05-07T11:48:31;6.20;;;5.10;;
38037;SDS011;23843;51.320;12.340;2023-05-07T11:50:59;5.83;;;5.03;;
38037;SDS011;23843;51.320;12.340;2023-05-07T11:53:33;4.40;;;4.00;;
38037;SDS011;23843;51.320;12.340;2023-05-07T11:56:01;3.50;;;3.20;;
38037;SDS011;23843;51.320;12.340;2023-05-07T11:58:31;4.90;;;4.40;;
38037;SDS011;23843;51.320;12.340;2023-05-07T12:00:56;5.47;;;4.60;;
38037;SDS011;23843;51.320;12.340;2023-05-07T12:03:22;5.73;;;4.53;;
38037;SDS011;23843;51.320;12.340;2023-05-07T12:05:47;7.30;;;5.47;;
38037;SDS011;23843;51.320;12.340;2023-05-07T12:08:13;5.97;;;5.17;;
38037;SDS011;23843;51.320;12.340;2023-05-07T12:10:44;4.50;;;3.90;;
38037;SDS011;23843;51.320;12.340;2023-05-07T12:13:16;5.40;;;4.60;;
38037;SDS011;23843;51.320;12.340;2023-05-07T12:15:41;5.83;;;5.07;;
38037;SDS011;23843;51.320;12.340;2023-05-07T12:18:07;5.03;;;4.23;;
38037;SDS011;23843;51.320;12.340;2023-05-07T12:20:33;5.93;;;5.10;;
38037;SDS011;23843;51.320;12.340;2023-05-07T12:22:59;7.07;;;4.90;;
38037;SDS011;23843;51.320;12.340;2023-05-07T12:25:26;5.30;;;4.73;;
38037;SDS011;23843;51.320;12.340;2023-05-07T12:27:56;6.60;;;5.83;;
38037;SDS011;23843;51.320;12.340;2023-05-07T12:30:22;5.23;;;4.73;;
38037;SDS011;23843;51.320;12.340;2023-05-07T12:32:47;5.40;;;4.90;;
38037;SDS011;23843;51.320;12.340;2023-05-07T12:35:25;5.70;;;4.77;;
38037;SDS011;23843;51.320;12.340;2023-05-07T12:37:54;5.13;;;4.57;;
38037;SDS011;23843;51.320;12.340;2023-05-07T12:40:20;5.53;;;4.77;;
38037;SDS011;23843;51.320;12.340;2023-05-07T12:42:48;4.30;;;3.90;;
38037;SDS011;23843;51.320;12.340;2023-05-07T12:45:19;4.00;;;3.50;;
38037;SDS011;23843;51.320;12.340;2023-05-07T12:47:45;4.70;;;4.13;;
38037;SDS011;23843;51.320;12.340;2023-05-07T12:50:10;5.50;;;4.63;;
38037;SDS011;23843;51.320;12.340;2023-05-07T12:52:36;4.37;;;3.80;;
38037;SDS011;23843;51.320;12.340;2023-05-07T12:55:05;5.80;;;5.20;;
38037;SDS011;23843;51.320;12.340;2023-05-07T12:57:31;6.40;;;4.83;;
38037;SDS011;23843;51.320;12.340;2023-05-07T13:00:03;4.90;;;4.37;;
38037;SDS011;23843;51.320;12.340;2023-05-07T13:02:37;6.33;;;5.73;;
38037;SDS011;23843;51.320;12.340;2023-05-07T13:05:03;5.80;;;4.87;;
38037;SDS011;23843;51.320;12.340;2023-05-07T13:07:29;4.93;;;4.40;;
38037;SDS011;23843;51.320;12.340;2023-05-07T13:09:54;4.27;;;3.87;;
38037;SDS011;23843;51.320;12.340;2023-05-07T13:12:20;5.87;;;5.27;;
38037;SDS011;23843;51.320;12.340;2023-05-07T13:14:48;5.70;;;5.07;;
38037;SDS011;23843;51.320;12.340;2023-05-07T13:17:13;4.60;;;4.00;;
38037;SDS011;23843;51.320;12.340;2023-05-07T13:19:40;5.63;;;4.67;;
38037;SDS011;23843;51.320;12.340;2023-05-07T13:22:06;4.40;;;4.00;;
38037;SDS011;23843;51.320;12.340;2023-05-07T13:24:31;4.57;;;4.10;;
38037;SDS011;23843;51.320;12.340;2023-05-07T13:26:57;4.47;;;4.00;;
38037;SDS011;23843;51.320;12.340;2023-05-07T13:29:25;8.77;;;5.70;;
38037;SDS011;23843;51.320;12.340;2023-05-07T13:31:50;6.10;;;4.10;;
38037;SDS011;23843;51.320;12.340;2023-05-07T13:34:16;5.00;;;4.50;;
38037;SDS011;23843;51.320;12.340;2023-05-07T13:36:43;4.17;;;3.77;;
38037;SDS011;23843;51.320;12.340;2023-05-07T13:39:08;5.60;;;4.50;;
38037;SDS011;23843;51.320;12.340;2023-05-07T13:41:34;7.40;;;5.10;;
38037;SDS011;23843;51.320;12.340;2023-05-07T13:44:01;5.67;;;4.60;;
38037;SDS011;23843;51.320;12.340;2023-05-07T13:46:27;4.23;;;3.83;;
38037;SDS011;23843;51.320;12.340;2023-05-07T13:48:52;5.20;;;4.70;;
38037;SDS011;23843;51.320;12.340;2023-05-07T13:51:17;6.57;;;4.30;;
38037;SDS011;23843;51.320;12.340;2023-05-07T13:53:44;3.63;;;3.10;;
38037;SDS011;23843;51.320;12.340;2023-05-07T13:56:10;3.70;;;3.27;;
38037;SDS011;23843;51.320;12.340;2023-05-07T13:58:35;4.50;;;4.00;;
38037;SDS011;23843;51.320;12.340;2023-05-07T14:01:01;4.70;;;4.20;;
38037;SDS011;23843;51.320;12.340;2023-05-07T14:03:30;3.97;;;3.30;;
38037;SDS011;23843;51.320;12.340;2023-05-07T14:05:55;4.17;;;3.37;;
38037;SDS011;23843;51.320;12.340;2023-05-07T14:08:20;3.77;;;3.30;;
38037;SDS011;23843;51.320;12.340;2023-05-07T14:10:47;3.63;;;3.30;;
38037;SDS011;23843;51.320;12.340;2023-05-07T14:13:13;4.50;;;3.47;;
38037;SDS011;23843;51.320;12.340;2023-05-07T14:15:38;3.90;;;3.27;;
38037;SDS011;23843;51.320;12.340;2023-05-07T14:18:04;4.00;;;3.57;;
38037;SDS011;23843;51.320;12.340;2023-05-07T14:20:30;3.63;;;3.00;;
38037;SDS011;23843;51.320;12.340;2023-05-07T14:22:55;3.47;;;2.90;;
38037;SDS011;23843;51.320;12.340;2023-05-07T14:25:21;3.50;;;3.20;;
38037;SDS011;23843;51.320;12.340;2023-05-07T14:27:49;3.77;;;3.37;;
38037;SDS011;23843;51.320;12.340;2023-05-07T14:30:14;3.20;;;2.80;;